Time;durP1;ratioP1;P1;durP2;ratioP2;P2;SDS_P1;SDS_P2;PMS_P1;PMS_P2;Temp;Humidity;BMP_temperature;BMP_pressure;BME280_temperature;BME280_humidity;BME280_pressure;Samples;Min_cycle;Max_cycle;Signal;HPM_P1;HPM_P2
2023/12/12 00:01:25;;;;;;;22.93;11.23;;;3.30;99.90;2.30;98748;;;;566751;248;24073;-83
2023/12/12 00:03:53;;;;;;;21.97;10.43;;;3.30;99.90;2.30;98763;;;;567689;248;24124;-81
2023/12/12 00:06:19;;;;;;;21.37;11.33;;;3.30;99.90;2.30;98758;;;;576505;248;24078;-82
2023/12/12 00:08:47;;;;;;;21.70;10.83;;;3.30;99.90;2.30;98750;;;;565828;249;24137;-77
2023/12/12 00:11:15;;;;;;;35.20;17.42;;;3.30;99.90;2.40;98760;;;;560384;249;35123;-79
2023/12/12 00:13:43;;;;;;;22.00;10.17;;;3.40;99.90;2.30;98768;;;;565363;249;24083;-77
2023/12/12 00:16:11;;;;;;;20.33;9.17;;;3.30;99.90;2.40;98764;;;;565507;249;24101;-83
2023/12/12 00:18:39;;;;;;;18.77;8.87;;;3.30;99.90;2.40;98769;;;;565309;249;24054;-80
2023/12/12 00:21:07;;;;;;;15.63;8.90;;;3.40;99.90;2.40;98767;;;;565500;249;25116;-83
2023/12/12 00:23:35;;;;;;;25.43;9.83;;;3.40;99.90;2.40;98766;;;;567759;249;24071;-80
2023/12/12 00:26:07;;;;;;;18.73;8.93;;;3.40;99.90;2.40;98777;;;;565553;249;24077;-78
2023/12/12 00:28:31;;;;;;;19.60;9.97;;;3.30;99.90;2.30;98775;;;;567520;249;24122;-82
2023/12/12 00:31:03;;;;;;;15.03;8.40;;;3.30;99.90;2.30;98791;;;;567520;249;24065;-84
2023/12/12 00:33:28;;;;;;;28.93;8.70;;;3.30;99.90;2.30;98784;;;;567103;249;24130;-80
2023/12/12 00:35:56;;;;;;;29.30;15.07;;;3.30;99.90;2.30;98782;;;;560577;249;35066;-78
2023/12/12 00:38:28;;;;;;;18.47;10.97;;;3.30;99.90;2.30;98788;;;;567421;249;24110;-77
2023/12/12 00:40:55;;;;;;;13.57;8.17;;;3.30;99.90;2.30;98791;;;;565187;249;24094;-77
2023/12/12 00:43:23;;;;;;;28.40;13.60;;;3.30;99.90;2.30;98791;;;;560523;249;35244;-81
2023/12/12 00:45:48;;;;;;;19.53;9.90;;;3.30;99.90;2.30;98792;;;;565503;249;24051;-77
2023/12/12 00:48:19;;;;;;;15.30;7.47;;;3.30;99.90;2.30;98795;;;;567558;249;25110;-80
2023/12/12 00:50:44;;;;;;;18.83;9.03;;;3.30;99.90;2.30;98806;;;;567499;249;24138;-78
2023/12/12 00:53:12;;;;;;;18.63;9.50;;;3.30;99.90;2.30;98802;;;;565236;249;24083;-80
2023/12/12 00:55:41;;;;;;;17.30;7.90;;;3.30;99.90;2.30;98813;;;;565380;249;24130;-81
2023/12/12 00:58:08;;;;;;;15.70;8.70;;;3.30;99.90;2.30;98815;;;;567276;249;24106;-84
2023/12/12 01:00:36;;;;;;;23.10;9.50;;;3.30;99.90;2.30;98809;;;;565994;246;24056;-82
2023/12/12 01:03:05;;;;;;;24.67;9.80;;;3.30;99.90;2.40;98811;;;;568742;248;24121;-81
2023/12/12 01:05:33;;;;;;;20.43;9.60;;;3.30;99.90;2.40;98815;;;;566088;248;24078;-83
2023/12/12 01:08:01;;;;;;;26.65;14.02;;;3.40;99.90;2.40;98817;;;;561235;248;35256;-82
2023/12/12 01:10:29;;;;;;;24.57;11.67;;;3.40;99.90;2.40;98821;;;;565893;248;24081;-80
2023/12/12 01:13:01;;;;;;;16.90;8.63;;;3.50;99.90;2.50;98817;;;;565947;248;24085;-77
2023/12/12 01:15:25;;;;;;;21.07;8.43;;;3.50;99.90;2.50;98826;;;;567669;248;24144;-77
2023/12/12 01:17:53;;;;;;;19.20;9.17;;;3.50;99.90;2.50;98824;;;;566121;248;24106;-79
2023/12/12 01:20:21;;;;;;;24.07;9.20;;;3.50;99.90;2.50;98828;;;;566194;249;24050;-78
2023/12/12 01:22:50;;;;;;;17.50;8.77;;;3.50;99.90;2.50;98833;;;;567917;249;24050;-79
2023/12/12 01:25:18;;;;;;;15.83;8.53;;;3.50;99.90;2.50;98826;;;;565457;249;24123;-80
2023/12/12 01:27:45;;;;;;;20.93;7.73;;;3.50;99.90;2.50;98831;;;;565459;249;24059;-78
2023/12/12 01:30:13;;;;;;;14.73;9.47;;;3.50;99.90;2.50;98836;;;;565596;249;24075;-76
2023/12/12 01:32:41;;;;;;;18.60;8.40;;;3.50;99.90;2.50;98837;;;;565418;249;24090;-78
2023/12/12 01:35:09;;;;;;;19.00;9.07;;;3.50;99.90;2.60;98841;;;;565322;249;24094;-77
2023/12/12 01:37:37;;;;;;;16.57;8.23;;;3.60;99.90;2.60;98849;;;;565267;249;25188;-77
2023/12/12 01:40:05;;;;;;;16.43;9.40;;;3.60;99.90;2.60;98853;;;;567021;249;24099;-77
2023/12/12 01:42:33;;;;;;;13.63;8.30;;;3.60;99.90;2.60;98849;;;;575713;249;24114;-78
2023/12/12 01:45:01;;;;;;;18.77;8.67;;;3.60;99.90;2.60;98847;;;;565142;249;24166;-78
2023/12/12 01:47:29;;;;;;;21.27;8.57;;;3.50;99.90;2.50;98847;;;;564935;249;24184;-77
2023/12/12 01:50:00;;;;;;;19.30;8.43;;;3.60;99.90;2.60;98853;;;;566965;249;24057;-78
2023/12/12 01:52:27;;;;;;;17.47;7.80;;;3.60;99.90;2.50;98853;;;;566625;249;24128;-79
2023/12/12 01:54:56;;;;;;;16.47;7.47;;;3.60;99.90;2.50;98852;;;;567036;249;24108;-77
2023/12/12 01:57:21;;;;;;;15.27;7.70;;;3.60;99.90;2.50;98854;;;;567222;249;24102;-78
2023/12/12 01:59:49;;;;;;;24.30;12.98;;;3.60;99.90;2.60;98844;;;;560620;249;35185;-78
2023/12/12 02:02:22;;;;;;;20.37;9.80;;;3.60;99.90;2.60;98840;;;;565495;249;24106;-81
2023/12/12 02:04:46;;;;;;;9.57;6.30;;;3.60;99.90;2.60;98845;;;;567178;249;24075;-77
2023/12/12 02:07:16;;;;;;;12.37;6.90;;;3.60;99.90;2.60;98844;;;;565718;249;24069;-82
2023/12/12 02:09:42;;;;;;;14.53;8.23;;;3.60;99.90;2.60;98854;;;;567255;249;24099;-79
2023/12/12 02:12:10;;;;;;;16.10;7.47;;;3.60;99.90;2.60;98854;;;;565912;247;24106;-77
2023/12/12 02:14:37;;;;;;;15.30;7.23;;;3.60;99.90;2.60;98861;;;;567188;248;24107;-79
2023/12/12 02:17:05;;;;;;;12.30;7.47;;;3.60;99.90;2.60;98856;;;;566383;248;24171;-78
2023/12/12 02:19:33;;;;;;;11.20;6.67;;;3.60;99.90;2.60;98855;;;;568215;248;24065;-79
2023/12/12 02:22:01;;;;;;;18.83;10.88;;;3.60;99.90;2.60;98863;;;;566858;248;35207;-82
2023/12/12 02:24:29;;;;;;;16.50;8.63;;;3.60;99.90;2.60;98866;;;;565840;248;24051;-83
2023/12/12 02:26:57;;;;;;;16.50;8.87;;;3.60;99.90;2.60;98864;;;;568163;248;24056;-81
2023/12/12 02:29:26;;;;;;;17.23;7.57;;;3.60;99.90;2.50;98866;;;;568273;248;24130;-81
2023/12/12 02:31:54;;;;;;;16.93;7.97;;;3.50;99.90;2.50;98868;;;;566388;249;24056;-81
2023/12/12 02:34:23;;;;;;;13.67;7.10;;;3.50;99.90;2.50;98871;;;;565908;249;24067;-78
2023/12/12 02:36:50;;;;;;;15.40;7.13;;;3.50;99.90;2.50;98870;;;;565741;249;24093;-78
2023/12/12 02:39:18;;;;;;;14.67;6.67;;;3.40;99.90;2.50;98879;;;;566287;249;24043;-83
2023/12/12 02:41:47;;;;;;;10.53;6.30;;;3.50;99.90;2.40;98877;;;;568127;249;24097;-79
2023/12/12 02:44:15;;;;;;;11.83;7.40;;;3.50;99.90;2.40;98878;;;;565921;249;24059;-76
2023/12/12 02:46:43;;;;;;;17.77;7.43;;;3.40;99.90;2.40;98885;;;;565703;249;24072;-77
2023/12/12 02:49:11;;;;;;;15.37;7.43;;;3.40;99.90;2.40;98887;;;;565840;249;24086;-77
2023/12/12 02:51:39;;;;;;;14.27;5.73;;;3.40;99.90;2.40;98890;;;;565585;249;24079;-77
2023/12/12 02:54:07;;;;;;;9.37;6.33;;;3.40;99.90;2.40;98886;;;;565119;249;24200;-78
2023/12/12 02:56:35;;;;;;;8.47;4.80;;;3.50;99.90;2.50;98889;;;;566910;249;24051;-77
2023/12/12 02:59:04;;;;;;;11.53;6.47;;;3.40;99.90;2.40;98886;;;;565224;249;24062;-80
2023/12/12 03:01:31;;;;;;;11.73;7.40;;;3.40;99.90;2.40;98893;;;;565170;249;24081;-77
2023/12/12 03:03:59;;;;;;;10.70;5.63;;;3.40;99.90;2.40;98894;;;;565459;249;24097;-78
2023/12/12 03:06:27;;;;;;;12.60;6.00;;;3.40;99.90;2.40;98894;;;;567434;249;24090;-78
2023/12/12 03:08:55;;;;;;;10.53;5.63;;;3.40;99.90;2.40;98891;;;;567229;249;24084;-78
2023/12/12 03:11:23;;;;;;;8.57;5.03;;;3.40;99.90;2.40;98896;;;;565568;249;24124;-83
2023/12/12 03:13:51;;;;;;;6.37;4.60;;;3.40;99.90;2.40;98902;;;;565972;249;24091;-80
2023/12/12 03:16:19;;;;;;;8.87;5.70;;;3.40;99.90;2.40;98894;;;;565523;249;24073;-83
2023/12/12 03:18:47;;;;;;;11.73;7.17;;;3.40;99.90;2.40;98890;;;;565487;249;24091;-80
2023/12/12 03:21:15;;;;;;;9.77;5.83;;;3.40;99.90;2.40;98890;;;;567596;249;24128;-83
2023/12/12 03:23:43;;;;;;;8.83;4.97;;;3.40;99.90;2.40;98898;;;;565783;247;24089;-79
2023/12/12 03:26:11;;;;;;;12.37;8.10;;;3.40;99.90;2.40;98901;;;;561689;248;35197;-82
2023/12/12 03:28:42;;;;;;;11.53;5.47;;;3.40;99.90;2.40;98905;;;;568519;248;25425;-78
2023/12/12 03:31:07;;;;;;;8.63;4.77;;;3.40;99.90;2.40;98900;;;;567953;248;24120;-78
2023/12/12 03:33:35;;;;;;;8.07;4.10;;;3.40;99.90;2.40;98907;;;;568200;248;24100;-78
2023/12/12 03:36:02;;;;;;;6.57;4.30;;;3.40;99.90;2.40;98905;;;;568059;248;24072;-79
2023/12/12 03:38:30;;;;;;;10.90;6.60;;;3.50;99.90;2.50;98917;;;;565679;248;25472;-82
2023/12/12 03:41:03;;;;;;;7.43;4.07;;;3.40;99.90;2.40;98913;;;;566211;248;24050;-78
2023/12/12 03:43:27;;;;;;;13.13;5.03;;;3.40;99.90;2.40;98922;;;;567232;249;24116;-77
2023/12/12 03:45:55;;;;;;;7.80;3.97;;;3.40;99.90;2.40;98926;;;;565658;249;24048;-78
2023/12/12 03:48:23;;;;;;;5.53;3.07;;;3.40;99.90;2.40;98924;;;;565628;249;24058;-77
2023/12/12 03:50:51;;;;;;;9.00;4.30;;;3.40;99.90;2.40;98925;;;;565820;249;24062;-78
2023/12/12 03:53:19;;;;;;;5.70;3.40;;;3.40;99.90;2.40;98929;;;;566090;249;24066;-77
2023/12/12 03:55:47;;;;;;;9.50;4.93;;;3.40;99.90;2.40;98921;;;;566194;247;24098;-79
2023/12/12 03:58:15;;;;;;;10.03;4.67;;;3.40;99.90;2.50;98940;;;;564103;249;24114;-78
2023/12/12 04:00:43;;;;;;;4.53;3.57;;;3.40;99.90;2.50;98943;;;;565705;249;24121;-77
2023/12/12 04:03:11;;;;;;;6.53;3.80;;;3.50;99.90;2.50;98947;;;;565358;249;24095;-78
2023/12/12 04:05:41;;;;;;;7.00;4.43;;;3.50;99.90;2.50;98944;;;;565135;249;24053;-79
2023/12/12 04:08:11;;;;;;;7.20;4.33;;;3.20;99.90;2.50;98950;;;;565150;249;24135;-82
2023/12/12 04:10:36;;;;;;;7.13;4.27;;;3.50;99.90;2.60;98953;;;;566814;249;24111;-80
2023/12/12 04:13:04;;;;;;;6.43;4.70;;;3.50;99.90;2.60;98941;;;;565267;249;24069;-81
2023/12/12 04:15:31;;;;;;;8.43;5.20;;;3.50;99.90;2.60;98946;;;;567530;249;24145;-81
2023/12/12 04:18:00;;;;;;;8.23;4.83;;;3.60;99.90;2.60;98948;;;;565562;249;24080;-83
2023/12/12 04:20:29;;;;;;;5.80;4.33;;;3.60;99.90;2.60;98949;;;;565547;249;24087;-83
2023/12/12 04:22:56;;;;;;;7.73;5.23;;;3.60;99.90;2.60;98947;;;;565629;249;24138;-84
2023/12/12 04:25:24;;;;;;;7.87;5.53;;;3.50;99.90;2.60;98952;;;;565452;249;24073;-81
2023/12/12 04:27:52;;;;;;;8.27;5.40;;;3.60;99.90;2.60;98950;;;;565789;249;24120;-79
2023/12/12 04:30:20;;;;;;;10.17;5.70;;;3.60;99.90;2.60;98956;;;;567307;249;24091;-83
2023/12/12 04:32:48;;;;;;;8.60;5.20;;;3.50;99.90;2.60;98957;;;;567155;249;24088;-82
2023/12/12 04:35:19;;;;;;;9.20;6.03;;;3.60;99.90;2.60;98949;;;;565612;246;24058;-80
2023/12/12 04:37:44;;;;;;;9.70;5.80;;;3.60;99.90;2.60;98955;;;;568189;248;24070;-77
2023/12/12 04:40:16;;;;;;;10.90;4.87;;;3.50;99.90;2.50;98957;;;;568400;248;24050;-77
2023/12/12 04:42:42;;;;;;;9.97;5.27;;;3.50;99.90;2.50;98952;;;;568012;248;24114;-78
2023/12/12 04:45:13;;;;;;;13.23;6.40;;;3.50;99.90;2.50;98958;;;;568128;248;24058;-78
2023/12/12 04:47:36;;;;;;;8.37;5.77;;;3.50;99.90;2.50;98961;;;;567661;248;24087;-77
2023/12/12 04:50:05;;;;;;;9.53;4.37;;;3.50;99.90;2.50;98956;;;;565882;248;24068;-78
2023/12/12 04:52:33;;;;;;;11.00;5.60;;;3.40;99.90;2.50;98961;;;;576415;246;24062;-77
2023/12/12 04:55:02;;;;;;;8.77;6.20;;;3.40;99.90;2.40;98956;;;;565631;249;24060;-76
2023/12/12 04:57:30;;;;;;;10.63;6.00;;;3.40;99.90;2.40;98957;;;;567885;249;24141;-77
2023/12/12 05:00:01;;;;;;;8.43;5.53;;;3.40;99.90;2.40;98961;;;;567497;249;24089;-78
2023/12/12 05:02:26;;;;;;;8.07;5.10;;;3.40;99.90;2.40;98968;;;;567204;249;24102;-82
2023/12/12 05:04:54;;;;;;;12.00;6.03;;;3.40;99.90;2.40;98960;;;;565573;249;24069;-80
2023/12/12 05:07:22;;;;;;;11.07;5.70;;;3.40;99.90;2.40;98967;;;;565537;249;24143;-82
2023/12/12 05:09:50;;;;;;;8.07;5.20;;;3.50;99.90;2.50;98973;;;;566645;247;24120;-79
2023/12/12 05:12:18;;;;;;;11.20;4.83;;;3.50;99.90;2.50;98973;;;;565674;249;24135;-79
2023/12/12 05:14:49;;;;;;;9.20;5.87;;;3.40;99.90;2.50;98987;;;;567719;249;24061;-77
2023/12/12 05:17:13;;;;;;;10.03;5.37;;;3.50;99.90;2.50;98983;;;;566976;249;24077;-82
2023/12/12 05:19:42;;;;;;;12.30;6.07;;;3.50;99.90;2.50;98981;;;;565410;249;24073;-82
2023/12/12 05:22:10;;;;;;;21.73;6.97;;;3.50;99.90;2.60;98979;;;;567364;249;24065;-79
2023/12/12 05:24:38;;;;;;;14.60;6.57;;;3.50;99.90;2.60;98992;;;;565212;249;24079;-81
2023/12/12 05:27:10;;;;;;;12.77;5.90;;;3.50;99.90;2.50;98995;;;;565446;249;24066;-79
2023/12/12 05:29:35;;;;;;;12.33;7.03;;;3.50;99.90;2.50;98996;;;;567855;249;24083;-78
2023/12/12 05:32:06;;;;;;;12.57;6.07;;;3.50;99.90;2.50;98990;;;;567545;249;24074;-78
2023/12/12 05:34:30;;;;;;;10.43;6.23;;;3.50;99.90;2.50;98997;;;;566940;249;24062;-80
2023/12/12 05:36:58;;;;;;;11.50;6.43;;;3.50;99.90;2.50;98988;;;;565142;249;24129;-83
2023/12/12 05:39:26;;;;;;;11.60;5.73;;;3.50;99.90;2.50;98993;;;;565354;249;24058;-80
2023/12/12 05:41:54;;;;;;;13.90;6.57;;;3.50;99.90;2.50;98985;;;;565360;247;24078;-83
2023/12/12 05:44:25;;;;;;;16.37;6.37;;;3.50;99.90;2.50;98978;;;;565205;249;24075;-84
2023/12/12 05:46:53;;;;;;;14.23;6.57;;;3.50;99.90;2.50;98983;;;;575833;247;24075;-82
2023/12/12 05:49:22;;;;;;;10.73;6.73;;;3.50;99.90;2.50;98990;;;;568344;248;24127;-82
2023/12/12 05:51:47;;;;;;;11.53;6.67;;;3.40;99.90;2.40;98987;;;;568263;248;24106;-83
2023/12/12 05:54:15;;;;;;;23.90;7.90;;;3.40;99.90;2.40;98993;;;;568113;248;24064;-85
2023/12/12 05:56:45;;;;;;;17.17;8.70;;;3.40;99.90;2.40;98993;;;;567432;248;24125;-83
2023/12/12 05:59:15;;;;;;;24.70;9.47;;;3.40;99.90;2.40;98997;;;;567735;248;24127;-78
2023/12/12 06:01:39;;;;;;;13.40;6.90;;;3.40;99.90;2.40;99000;;;;567846;248;24075;-77
2023/12/12 06:04:07;;;;;;;15.07;7.50;;;3.40;99.90;2.40;99002;;;;566025;248;24055;-80
2023/12/12 06:06:36;;;;;;;27.90;13.27;;;3.40;99.90;2.40;99004;;;;561922;249;35091;-77
2023/12/12 06:09:04;;;;;;;16.93;8.97;;;3.40;99.90;2.40;99003;;;;565034;249;24083;-77
2023/12/12 06:11:35;;;;;;;17.53;7.50;;;3.40;99.90;2.40;99006;;;;565442;249;24066;-77
2023/12/12 06:14:02;;;;;;;18.27;7.60;;;3.40;99.90;2.40;99008;;;;576276;249;24164;-78
2023/12/12 06:16:28;;;;;;;10.47;7.03;;;3.40;99.90;2.40;99015;;;;565469;249;24058;-78
2023/12/12 06:18:55;;;;;;;14.80;7.70;;;3.40;99.90;2.40;99017;;;;566195;249;24036;-79
2023/12/12 06:21:23;;;;;;;10.70;6.33;;;3.40;99.90;2.40;99019;;;;565686;249;24384;-77
2023/12/12 06:23:52;;;;;;;10.60;5.80;;;3.40;99.90;2.40;99026;;;;567277;249;24052;-78
2023/12/12 06:26:21;;;;;;;8.43;5.50;;;3.40;99.90;2.50;99030;;;;565561;249;24163;-80
2023/12/12 06:28:49;;;;;;;11.53;6.80;;;3.40;99.90;2.50;99037;;;;565843;249;24064;-81
2023/12/12 06:31:17;;;;;;;12.77;6.43;;;3.50;99.90;2.50;99041;;;;566786;249;25456;-78
2023/12/12 06:33:44;;;;;;;9.07;6.30;;;3.50;99.90;2.60;99043;;;;568465;249;24083;-78
2023/12/12 06:36:12;;;;;;;11.73;5.90;;;3.50;99.90;2.60;99050;;;;568259;249;24109;-80
2023/12/12 06:38:42;;;;;;;15.30;8.00;;;3.50;99.90;2.60;99043;;;;568432;249;24117;-79
2023/12/12 06:41:12;;;;;;;10.97;6.67;;;3.50;99.90;2.60;99050;;;;566134;249;24070;-78
2023/12/12 06:43:39;;;;;;;13.23;6.20;;;3.60;99.90;2.60;99049;;;;565252;249;24055;-84
2023/12/12 06:46:05;;;;;;;10.77;5.43;;;3.60;99.90;2.70;99054;;;;567130;249;24136;-82
2023/12/12 06:48:33;;;;;;;11.93;6.00;;;3.60;99.90;2.60;99056;;;;565312;249;24065;-83
2023/12/12 06:51:04;;;;;;;14.57;6.77;;;3.60;99.90;2.60;99056;;;;567388;249;24104;-83
2023/12/12 06:53:30;;;;;;;10.43;5.67;;;3.60;99.90;2.60;99074;;;;567384;249;24105;-84
2023/12/12 06:55:58;;;;;;;9.70;3.83;;;3.60;99.90;2.60;99078;;;;565590;249;24114;-81
2023/12/12 06:58:26;;;;;;;9.87;4.67;;;3.70;99.90;2.60;99078;;;;565618;247;24046;-83
2023/12/12 07:00:54;;;;;;;9.70;6.43;;;3.60;99.90;2.70;99082;;;;566715;248;24081;-82
2023/12/12 07:03:24;;;;;;;19.33;10.27;;;3.60;99.90;2.70;99086;;;;563687;248;35139;-83
2023/12/12 07:05:52;;;;;;;22.23;12.13;;;3.70;99.90;2.70;99084;;;;561545;248;35267;-80
2023/12/12 07:08:20;;;;;;;23.67;13.70;;;3.70;99.90;2.70;99090;;;;561507;244;36994;-79
2023/12/12 07:10:48;;;;;;;22.23;13.10;;;3.70;99.90;2.70;99093;;;;561490;248;35279;-80
2023/12/12 07:13:16;;;;;;;23.33;13.38;;;2.90;99.90;2.80;99090;;;;560667;248;35197;-77
2023/12/12 07:15:44;;;;;;;18.00;9.30;;;3.80;99.90;2.80;99094;;;;565654;248;24116;-78
2023/12/12 07:18:14;;;;;;;14.87;8.37;;;3.80;99.90;2.80;99099;;;;567255;249;24057;-78
2023/12/12 07:20:43;;;;;;;14.93;6.60;;;3.80;99.90;2.80;99103;;;;565486;249;24092;-78
2023/12/12 07:23:08;;;;;;;17.30;7.60;;;3.80;99.90;2.80;99107;;;;565188;249;24113;-79
2023/12/12 07:25:36;;;;;;;17.73;7.97;;;7.90;99.90;2.80;99113;;;;567423;249;24062;-81
2023/12/12 07:28:04;;;;;;;21.40;7.47;;;3.70;99.90;2.80;99104;;;;567338;249;24065;-77
2023/12/12 07:30:32;;;;;;;15.97;6.93;;;3.70;99.90;2.70;99116;;;;567178;249;24111;-77
2023/12/12 07:33:01;;;;;;;12.13;6.53;;;3.70;99.90;2.70;99120;;;;565595;249;25119;-78
2023/12/12 07:35:29;;;;;;;15.03;6.90;;;3.70;99.90;2.70;99123;;;;567071;249;24060;-77
2023/12/12 07:37:56;;;;;;;12.40;7.37;;;3.70;99.90;2.70;99124;;;;565016;249;24113;-77
2023/12/12 07:40:25;;;;;;;18.03;7.93;;;3.70;99.90;2.70;99128;;;;564987;249;24138;-77
2023/12/12 07:42:52;;;;;;;12.13;6.20;;;3.60;99.90;2.70;99131;;;;565086;249;24069;-78
2023/12/12 07:45:20;;;;;;;15.67;7.07;;;3.60;99.90;2.70;99127;;;;564996;249;24138;-77
2023/12/12 07:47:51;;;;;;;13.60;6.77;;;3.60;99.90;2.70;99138;;;;566959;249;24110;-79
2023/12/12 07:50:22;;;;;;;6.87;4.63;;;3.60;99.90;2.70;99142;;;;567122;249;24079;-79
2023/12/12 07:52:50;;;;;;;14.93;7.07;;;3.60;99.90;2.70;99137;;;;566780;249;24120;-83
2023/12/12 07:55:18;;;;;;;18.73;11.60;;;3.60;99.90;2.70;99142;;;;562028;249;35090;-79
2023/12/12 07:57:44;;;;;;;20.35;12.23;;;3.70;99.90;2.70;99142;;;;562040;249;35138;-77
2023/12/12 08:00:16;;;;;;;21.98;12.55;;;3.70;99.90;2.80;99146;;;;560535;249;35320;-77
2023/12/12 08:02:41;;;;;;;14.87;8.03;;;3.80;99.90;2.80;99146;;;;575642;249;24162;-77
2023/12/12 08:05:12;;;;;;;9.13;6.63;;;3.80;99.90;2.80;99149;;;;567110;249;24072;-79
2023/12/12 08:07:37;;;;;;;15.87;7.17;;;3.80;99.90;2.90;99160;;;;567348;249;24077;-83
2023/12/12 08:10:06;;;;;;;9.97;6.00;;;3.90;99.90;2.90;99158;;;;565502;246;24106;-80
2023/12/12 08:12:33;;;;;;;14.07;7.30;;;3.80;99.90;2.90;99166;;;;568310;248;25424;-76
2023/12/12 08:15:01;;;;;;;9.50;5.47;;;3.80;99.90;2.90;99161;;;;565932;248;24102;-77
2023/12/12 08:17:29;;;;;;;12.03;6.77;;;3.90;99.90;2.90;99166;;;;567671;248;24065;-79
2023/12/12 08:19:56;;;;;;;12.13;6.90;;;3.90;99.90;2.90;99168;;;;565733;248;25162;-78
2023/12/12 08:22:25;;;;;;;8.43;5.80;;;3.90;99.90;2.90;99165;;;;565490;248;24117;-81
2023/12/12 08:24:54;;;;;;;15.53;7.97;;;3.90;99.90;2.90;99175;;;;565700;248;24125;-79
2023/12/12 08:27:21;;;;;;;9.77;5.93;;;3.90;99.90;2.90;99177;;;;565483;248;25115;-77
2023/12/12 08:29:49;;;;;;;10.70;5.67;;;3.80;99.90;2.90;99173;;;;565441;249;24106;-79
2023/12/12 08:32:18;;;;;;;10.07;5.00;;;3.80;99.90;2.90;99171;;;;567632;249;24064;-78
2023/12/12 08:34:46;;;;;;;11.13;5.70;;;3.80;99.90;2.80;99175;;;;565497;249;24064;-77
2023/12/12 08:37:15;;;;;;;10.13;4.90;;;3.80;99.90;2.80;99169;;;;567345;249;24177;-79
2023/12/12 08:39:41;;;;;;;10.93;5.50;;;3.70;99.90;2.80;99178;;;;565268;249;24071;-79
2023/12/12 08:42:13;;;;;;;6.53;4.73;;;3.70;99.90;2.80;99180;;;;565602;249;24059;-78
2023/12/12 08:44:38;;;;;;;10.30;3.97;;;3.70;99.90;2.80;99182;;;;567042;249;24066;-79
2023/12/12 08:47:06;;;;;;;8.80;5.33;;;3.70;99.90;2.80;99193;;;;567207;249;24113;-80
2023/12/12 08:49:37;;;;;;;10.17;5.47;;;3.70;99.90;2.80;99185;;;;567395;249;24080;-77
2023/12/12 08:52:05;;;;;;;8.03;4.67;;;3.70;99.90;2.80;99189;;;;566999;249;24143;-80
2023/12/12 08:54:34;;;;;;;12.17;5.93;;;3.70;99.90;2.80;99195;;;;567183;249;24047;-78
2023/12/12 08:56:58;;;;;;;17.80;7.57;;;3.70;99.90;2.80;99185;;;;566841;249;24135;-77
2023/12/12 08:59:26;;;;;;;12.17;5.50;;;3.80;99.90;2.90;99199;;;;565247;249;24099;-77
2023/12/12 09:01:54;;;;;;;6.70;4.60;;;3.80;99.90;2.90;99208;;;;565017;249;24215;-78
2023/12/12 09:04:22;;;;;;;10.37;5.30;;;3.80;99.90;2.90;99204;;;;565379;249;24114;-77
2023/12/12 09:06:50;;;;;;;12.90;5.30;;;3.80;99.90;2.90;99207;;;;567448;249;24105;-78
2023/12/12 09:09:18;;;;;;;8.97;5.17;;;3.80;99.90;2.90;99203;;;;565211;249;24142;-76
2023/12/12 09:11:49;;;;;;;10.10;5.73;;;3.80;99.90;2.90;99207;;;;565545;249;24112;-77
2023/12/12 09:14:18;;;;;;;8.90;4.57;;;3.80;99.90;2.90;99209;;;;567440;249;24113;-77
2023/12/12 09:16:47;;;;;;;10.20;5.37;;;3.80;99.90;2.90;99216;;;;565343;249;24057;-77
2023/12/12 09:19:16;;;;;;;8.27;5.87;;;3.90;99.90;3.00;99219;;;;565090;249;24110;-77
2023/12/12 09:21:44;;;;;;;9.80;5.30;;;3.90;99.90;3.00;99227;;;;567318;246;24103;-77
2023/12/12 09:24:15;;;;;;;16.73;5.63;;;3.90;99.90;3.10;99220;;;;566553;248;24073;-78
2023/12/12 09:26:40;;;;;;;9.40;6.27;;;3.90;99.90;3.10;99223;;;;576684;247;24054;-78
2023/12/12 09:29:07;;;;;;;9.43;6.47;;;4.00;99.90;3.10;99233;;;;565959;248;25176;-78
2023/12/12 09:31:35;;;;;;;10.73;6.63;;;4.00;99.90;3.20;99238;;;;565739;248;24086;-76
2023/12/12 09:34:06;;;;;;;9.00;5.73;;;4.10;99.90;3.20;99233;;;;566046;248;24097;-78
2023/12/12 09:36:31;;;;;;;8.20;4.70;;;4.10;99.90;3.20;99234;;;;567870;248;24066;-78
2023/12/12 09:39:00;;;;;;;8.90;4.27;;;4.10;99.90;3.20;99237;;;;563406;248;24063;-78
2023/12/12 09:41:30;;;;;;;7.97;4.80;;;4.10;99.90;3.20;99237;;;;565496;249;24118;-78
2023/12/12 09:43:55;;;;;;;7.53;4.83;;;4.20;99.90;3.30;99239;;;;567050;249;24110;-76
2023/12/12 09:46:26;;;;;;;9.20;4.63;;;4.20;99.90;3.30;99238;;;;566582;249;24070;-79
2023/12/12 09:48:54;;;;;;;6.80;4.57;;;4.20;99.90;3.30;99237;;;;567338;249;24062;-78
2023/12/12 09:51:22;;;;;;;11.93;7.10;;;4.30;99.90;3.30;99242;;;;562757;249;35312;-83
2023/12/12 09:53:47;;;;;;;14.00;8.97;;;4.30;99.90;3.40;99244;;;;571487;248;46075;-83
2023/12/12 09:56:18;;;;;;;14.10;9.53;;;4.40;99.90;3.50;99247;;;;561469;249;45999;-82
2023/12/12 09:58:47;;;;;;;11.97;6.10;;;4.50;99.90;3.60;99244;;;;565598;249;24073;-82
2023/12/12 10:01:14;;;;;;;8.17;5.13;;;4.50;99.90;3.70;99240;;;;565375;249;24120;-80
2023/12/12 10:03:43;;;;;;;7.07;4.43;;;4.60;99.90;3.70;99252;;;;565699;249;24128;-81
2023/12/12 10:06:11;;;;;;;6.33;3.77;;;4.60;99.90;3.70;99250;;;;576057;247;24080;-77
2023/12/12 10:08:38;;;;;;;5.57;4.23;;;4.60;99.90;3.70;99252;;;;564751;249;24151;-77
2023/12/12 10:11:06;;;;;;;5.73;4.60;;;4.70;99.90;3.80;99254;;;;567351;249;24089;-80
2023/12/12 10:13:50;;;;;;;6.80;4.27;;;4.70;99.90;3.80;99264;;;;565150;249;24146;-78
2023/12/12 10:16:14;;;;;;;7.77;4.37;;;4.70;99.90;3.80;99251;;;;565124;249;24091;-78
2023/12/12 10:18:46;;;;;;;6.40;4.03;;;4.80;99.90;3.80;99255;;;;565576;249;24053;-78
2023/12/12 10:21:26;;;;;;;3.77;3.23;;;4.70;99.90;3.80;99249;;;;575979;249;24173;-82
2023/12/12 10:23:54;;;;;;;7.17;3.70;;;4.80;99.90;3.80;99253;;;;567329;246;24074;-84
2023/12/12 10:26:25;;;;;;;5.23;2.90;;;4.80;99.90;3.90;99254;;;;565296;249;24071;-77
2023/12/12 10:28:57;;;;;;;3.60;3.07;;;4.80;99.90;3.90;99255;;;;567281;249;24089;-78
2023/12/12 10:31:22;;;;;;;4.17;3.17;;;4.90;99.90;3.90;99261;;;;567264;249;24059;-85
2023/12/12 10:33:55;;;;;;;4.50;2.80;;;4.90;99.90;3.90;99255;;;;567029;248;24071;-82
2023/12/12 10:36:20;;;;;;;3.70;3.23;;;4.90;99.90;3.90;99259;;;;566124;248;24078;-79
2023/12/12 10:38:48;;;;;;;4.50;3.27;;;4.80;99.90;3.90;99259;;;;566106;248;24070;-84
2023/12/12 10:41:20;;;;;;;6.27;3.23;;;4.80;99.90;3.90;99261;;;;563626;248;24051;-84
2023/12/12 10:43:48;;;;;;;4.67;3.33;;;4.90;99.90;3.90;99273;;;;565680;248;24088;-81
2023/12/12 10:46:18;;;;;;;5.53;3.83;;;4.80;99.90;3.90;99268;;;;567403;248;24095;-80
2023/12/12 10:48:52;;;;;;;4.97;3.30;;;4.80;99.90;3.90;99271;;;;566033;248;24051;-80
2023/12/12 10:51:23;;;;;;;5.57;3.43;;;4.80;99.90;3.90;99274;;;;565446;249;24073;-80
2023/12/12 10:53:51;;;;;;;4.17;3.70;;;4.80;99.90;3.80;99272;;;;567656;249;24062;-80
2023/12/12 10:56:17;;;;;;;4.97;3.53;;;4.80;99.90;3.80;99266;;;;567297;249;24105;-76
2023/12/12 10:58:48;;;;;;;7.33;3.67;;;4.80;99.90;3.80;99267;;;;565267;249;24067;-83
2023/12/12 11:01:15;;;;;;;10.63;4.40;;;4.80;99.90;3.90;99270;;;;567309;249;24067;-80
2023/12/12 11:03:43;;;;;;;13.00;5.57;;;4.80;99.90;3.90;99270;;;;565682;249;24062;-80
2023/12/12 11:06:11;;;;;;;11.23;5.37;;;4.80;99.90;3.90;99274;;;;576673;246;24090;-82
2023/12/12 11:08:43;;;;;;;12.80;5.47;;;4.90;99.90;3.90;99279;;;;567723;249;24117;-81
2023/12/12 11:11:07;;;;;;;24.33;11.30;;;4.80;99.90;3.90;99285;;;;566922;249;24139;-82
2023/12/12 11:13:35;;;;;;;41.20;16.97;;;4.80;99.90;3.90;99289;;;;565378;249;24064;-79
2023/12/12 11:16:03;;;;;;;38.07;16.70;;;4.80;99.90;3.80;99284;;;;568234;249;24070;-78
2023/12/12 11:18:31;;;;;;;40.00;14.40;;;4.70;99.90;3.80;99294;;;;566110;249;24153;-84
2023/12/12 11:20:59;;;;;;;37.87;12.60;;;4.70;99.90;3.70;99289;;;;567495;249;24133;-80
2023/12/12 11:23:53;;;;;;;32.47;13.63;;;4.70;99.90;3.70;99298;;;;567468;249;24082;-83
2023/12/12 11:26:19;;;;;;;65.90;26.25;;;4.60;99.90;3.70;99292;;;;561991;249;35189;-82
2023/12/12 11:28:48;;;;;;;45.57;17.63;;;4.60;99.90;3.70;99288;;;;565413;249;24064;-82
2023/12/12 11:31:12;;;;;;;29.83;13.30;;;4.60;99.90;3.70;99294;;;;567270;249;24081;-80